sensor_id;sensor_type;location;lat;lon;timestamp;temperature;humidity
5796;DHT22;2924;51.458;7.046;2022-12-18T00:01:02;-4.30;99.90
5796;DHT22;2924;51.458;7.046;2022-12-18T00:03:32;-4.30;99.90
5796;DHT22;2924;51.458;7.046;2022-12-18T00:05:58;-4.30;99.90
5796;DHT22;2924;51.458;7.046;2022-12-18T00:08:24;-4.40;99.90
5796;DHT22;2924;51.458;7.046;2022-12-18T00:10:50;-4.50;99.90
5796;DHT22;2924;51.458;7.046;2022-12-18T00:13:16;-4.60;99.90
5796;DHT22;2924;51.458;7.046;2022-12-18T00:15:42;-4.70;99.90
5796;DHT22;2924;51.458;7.046;2022-12-18T00:18:08;-4.80;99.90
5796;DHT22;2924;51.458;7.046;2022-12-18T00:20:38;-4.90;99.90
5796;DHT22;2924;51.458;7.046;2022-12-18T00:23:04;-4.80;99.90
5796;DHT22;2924;51.458;7.046;2022-12-18T00:25:35;-4.80;99.90
5796;DHT22;2924;51.458;7.046;2022-12-18T00:28:02;-4.70;99.90
5796;DHT22;2924;51.458;7.046;2022-12-18T00:30:28;-4.60;99.90
5796;DHT22;2924;51.458;7.046;2022-12-18T00:32:54;-4.60;99.90
5796;DHT22;2924;51.458;7.046;2022-12-18T00:35:20;-4.60;99.90
5796;DHT22;2924;51.458;7.046;2022-12-18T00:37:46;-4.70;99.90
5796;DHT22;2924;51.458;7.046;2022-12-18T00:40:12;-4.70;99.90
5796;DHT22;2924;51.458;7.046;2022-12-18T00:42:37;-4.60;99.90
5796;DHT22;2924;51.458;7.046;2022-12-18T00:45:29;-4.50;99.90
5796;DHT22;2924;51.458;7.046;2022-12-18T00:47:55;-4.40;99.90
5796;DHT22;2924;51.458;7.046;2022-12-18T00:50:22;-4.40;99.90
5796;DHT22;2924;51.458;7.046;2022-12-18T00:52:48;-4.50;99.90
5796;DHT22;2924;51.458;7.046;2022-12-18T00:55:14;-4.60;99.90
5796;DHT22;2924;51.458;7.046;2022-12-18T00:57:40;-4.60;99.90
5796;DHT22;2924;51.458;7.046;2022-12-18T01:00:08;-4.60;99.90
5796;DHT22;2924;51.458;7.046;2022-12-18T01:02:34;-4.60;99.90
5796;DHT22;2924;51.458;7.046;2022-12-18T01:04:59;-4.60;99.90
5796;DHT22;2924;51.458;7.046;2022-12-18T01:07:25;-4.50;99.90
5796;DHT22;2924;51.458;7.046;2022-12-18T01:09:51;-4.60;99.90
5796;DHT22;2924;51.458;7.046;2022-12-18T01:12:16;-4.60;99.90
5796;DHT22;2924;51.458;7.046;2022-12-18T01:14:42;-4.70;99.90
5796;DHT22;2924;51.458;7.046;2022-12-18T01:17:07;-4.80;99.90
5796;DHT22;2924;51.458;7.046;2022-12-18T01:19:33;-4.80;99.90
5796;DHT22;2924;51.458;7.046;2022-12-18T01:21:59;-4.80;99.90
5796;DHT22;2924;51.458;7.046;2022-12-18T01:24:25;-4.80;99.90
5796;DHT22;2924;51.458;7.046;2022-12-18T01:26:50;-4.90;99.90
5796;DHT22;2924;51.458;7.046;2022-12-18T01:29:16;-5.00;99.90
5796;DHT22;2924;51.458;7.046;2022-12-18T01:31:42;-5.00;99.90
5796;DHT22;2924;51.458;7.046;2022-12-18T01:34:09;-4.90;99.90
5796;DHT22;2924;51.458;7.046;2022-12-18T01:36:36;-4.70;99.90
5796;DHT22;2924;51.458;7.046;2022-12-18T01:39:11;-4.60;99.90
5796;DHT22;2924;51.458;7.046;2022-12-18T01:41:38;-4.40;99.90
5796;DHT22;2924;51.458;7.046;2022-12-18T01:44:58;-4.40;99.90
5796;DHT22;2924;51.458;7.046;2022-12-18T01:47:41;-4.50;99.90
5796;DHT22;2924;51.458;7.046;2022-12-18T01:50:17;-4.60;99.90
5796;DHT22;2924;51.458;7.046;2022-12-18T01:52:50;-4.50;99.90
5796;DHT22;2924;51.458;7.046;2022-12-18T01:55:19;-4.50;99.90
5796;DHT22;2924;51.458;7.046;2022-12-18T01:57:46;-4.50;99.90
5796;DHT22;2924;51.458;7.046;2022-12-18T02:00:17;-4.50;99.90
5796;DHT22;2924;51.458;7.046;2022-12-18T02:02:44;-4.60;99.90
5796;DHT22;2924;51.458;7.046;2022-12-18T02:05:13;-4.50;99.90
5796;DHT22;2924;51.458;7.046;2022-12-18T02:10:13;-4.40;99.90
5796;DHT22;2924;51.458;7.046;2022-12-18T02:12:43;-4.40;99.90
5796;DHT22;2924;51.458;7.046;2022-12-18T02:15:31;-4.40;99.90
5796;DHT22;2924;51.458;7.046;2022-12-18T02:18:06;-4.30;99.90
5796;DHT22;2924;51.458;7.046;2022-12-18T02:20:41;-4.20;99.90
5796;DHT22;2924;51.458;7.046;2022-12-18T02:28:44;-4.10;99.90
5796;DHT22;2924;51.458;7.046;2022-12-18T02:31:14;-4.10;99.90
5796;DHT22;2924;51.458;7.046;2022-12-18T02:33:43;-4.00;99.90
5796;DHT22;2924;51.458;7.046;2022-12-18T02:36:11;-4.00;99.90
5796;DHT22;2924;51.458;7.046;2022-12-18T02:38:39;-4.00;99.90
5796;DHT22;2924;51.458;7.046;2022-12-18T02:41:05;-3.90;99.90
5796;DHT22;2924;51.458;7.046;2022-12-18T02:43:31;-3.90;99.90
5796;DHT22;2924;51.458;7.046;2022-12-18T02:46:00;-3.80;99.90
5796;DHT22;2924;51.458;7.046;2022-12-18T02:48:29;-3.80;99.90
5796;DHT22;2924;51.458;7.046;2022-12-18T02:51:14;-3.70;99.90
5796;DHT22;2924;51.458;7.046;2022-12-18T02:53:53;-3.60;99.90
5796;DHT22;2924;51.458;7.046;2022-12-18T02:56:38;-3.40;99.90
5796;DHT22;2924;51.458;7.046;2022-12-18T02:59:13;-3.30;99.90
5796;DHT22;2924;51.458;7.046;2022-12-18T03:01:47;-3.20;99.90
5796;DHT22;2924;51.458;7.046;2022-12-18T03:04:30;-3.10;99.90
5796;DHT22;2924;51.458;7.046;2022-12-18T03:07:02;-3.20;99.90
5796;DHT22;2924;51.458;7.046;2022-12-18T03:09:33;-3.10;99.90
5796;DHT22;2924;51.458;7.046;2022-12-18T03:12:21;-3.10;99.90
5796;DHT22;2924;51.458;7.046;2022-12-18T03:15:03;-3.20;99.90
5796;DHT22;2924;51.458;7.046;2022-12-18T03:17:32;-3.20;99.90
5796;DHT22;2924;51.458;7.046;2022-12-18T03:20:03;-3.30;99.90
5796;DHT22;2924;51.458;7.046;2022-12-18T03:22:31;-3.40;99.90
5796;DHT22;2924;51.458;7.046;2022-12-18T03:24:58;-3.50;99.90
5796;DHT22;2924;51.458;7.046;2022-12-18T03:27:26;-3.50;99.90
5796;DHT22;2924;51.458;7.046;2022-12-18T03:30:03;-3.50;99.90
5796;DHT22;2924;51.458;7.046;2022-12-18T03:32:50;-3.50;99.90
5796;DHT22;2924;51.458;7.046;2022-12-18T03:35:22;-3.60;99.90
5796;DHT22;2924;51.458;7.046;2022-12-18T03:37:49;-3.80;99.90
5796;DHT22;2924;51.458;7.046;2022-12-18T03:40:15;-3.90;99.90
5796;DHT22;2924;51.458;7.046;2022-12-18T03:48:27;-3.90;99.90
5796;DHT22;2924;51.458;7.046;2022-12-18T03:50:59;-3.90;99.90
5796;DHT22;2924;51.458;7.046;2022-12-18T03:53:43;-3.90;99.90
5796;DHT22;2924;51.458;7.046;2022-12-18T03:56:11;-3.90;99.90
5796;DHT22;2924;51.458;7.046;2022-12-18T03:58:40;-4.00;99.90
5796;DHT22;2924;51.458;7.046;2022-12-18T04:01:12;-4.00;99.90
5796;DHT22;2924;51.458;7.046;2022-12-18T04:03:41;-4.00;99.90
5796;DHT22;2924;51.458;7.046;2022-12-18T04:06:08;-4.00;99.90
5796;DHT22;2924;51.458;7.046;2022-12-18T04:08:35;-4.00;99.90
5796;DHT22;2924;51.458;7.046;2022-12-18T04:11:01;-4.00;99.90
5796;DHT22;2924;51.458;7.046;2022-12-18T04:13:31;-4.00;99.90
5796;DHT22;2924;51.458;7.046;2022-12-18T04:15:57;-4.00;99.90
5796;DHT22;2924;51.458;7.046;2022-12-18T04:18:23;-4.00;99.90
5796;DHT22;2924;51.458;7.046;2022-12-18T04:20:48;-3.90;99.90
5796;DHT22;2924;51.458;7.046;2022-12-18T04:23:14;-4.00;99.90
5796;DHT22;2924;51.458;7.046;2022-12-18T04:25:39;-4.00;99.90
5796;DHT22;2924;51.458;7.046;2022-12-18T04:28:05;-4.00;99.90
5796;DHT22;2924;51.458;7.046;2022-12-18T04:30:31;-4.00;99.90
5796;DHT22;2924;51.458;7.046;2022-12-18T04:32:56;-3.90;99.90
5796;DHT22;2924;51.458;7.046;2022-12-18T04:35:22;-3.80;99.90
5796;DHT22;2924;51.458;7.046;2022-12-18T04:37:47;-3.80;99.90
5796;DHT22;2924;51.458;7.046;2022-12-18T04:40:13;-3.80;99.90
5796;DHT22;2924;51.458;7.046;2022-12-18T04:42:39;-3.70;99.90
5796;DHT22;2924;51.458;7.046;2022-12-18T04:45:06;-3.60;99.90
5796;DHT22;2924;51.458;7.046;2022-12-18T04:47:32;-3.50;99.90
5796;DHT22;2924;51.458;7.046;2022-12-18T04:49:57;-3.50;99.90
5796;DHT22;2924;51.458;7.046;2022-12-18T04:52:23;-3.50;99.90
5796;DHT22;2924;51.458;7.046;2022-12-18T04:54:49;-3.50;99.90
5796;DHT22;2924;51.458;7.046;2022-12-18T04:57:15;-3.40;99.90
5796;DHT22;2924;51.458;7.046;2022-12-18T04:59:40;-3.50;99.90
5796;DHT22;2924;51.458;7.046;2022-12-18T05:02:06;-3.50;99.90
5796;DHT22;2924;51.458;7.046;2022-12-18T05:04:32;-3.50;99.90
5796;DHT22;2924;51.458;7.046;2022-12-18T05:06:57;-3.40;99.90
5796;DHT22;2924;51.458;7.046;2022-12-18T05:09:23;-3.40;99.90
5796;DHT22;2924;51.458;7.046;2022-12-18T05:11:49;-3.40;99.90
5796;DHT22;2924;51.458;7.046;2022-12-18T05:14:14;-3.40;99.90
5796;DHT22;2924;51.458;7.046;2022-12-18T05:16:40;-3.50;99.90
5796;DHT22;2924;51.458;7.046;2022-12-18T05:19:06;-3.50;99.90
5796;DHT22;2924;51.458;7.046;2022-12-18T05:21:31;-3.50;99.90
5796;DHT22;2924;51.458;7.046;2022-12-18T05:23:57;-3.40;99.90
5796;DHT22;2924;51.458;7.046;2022-12-18T05:26:23;-3.40;99.90
5796;DHT22;2924;51.458;7.046;2022-12-18T05:28:48;-3.30;99.90
5796;DHT22;2924;51.458;7.046;2022-12-18T05:31:14;-3.40;99.90
5796;DHT22;2924;51.458;7.046;2022-12-18T05:33:40;-3.40;99.90
5796;DHT22;2924;51.458;7.046;2022-12-18T05:36:08;-3.50;99.90
5796;DHT22;2924;51.458;7.046;2022-12-18T05:38:35;-3.50;99.90
5796;DHT22;2924;51.458;7.046;2022-12-18T05:41:02;-3.50;99.90
5796;DHT22;2924;51.458;7.046;2022-12-18T05:43:28;-3.60;99.90
5796;DHT22;2924;51.458;7.046;2022-12-18T05:45:54;-3.60;99.90
5796;DHT22;2924;51.458;7.046;2022-12-18T05:48:20;-3.60;99.90
5796;DHT22;2924;51.458;7.046;2022-12-18T05:50:47;-3.50;99.90
5796;DHT22;2924;51.458;7.046;2022-12-18T05:53:15;-3.60;99.90
5796;DHT22;2924;51.458;7.046;2022-12-18T05:55:42;-3.60;99.90
5796;DHT22;2924;51.458;7.046;2022-12-18T05:58:09;-3.50;99.90
5796;DHT22;2924;51.458;7.046;2022-12-18T06:00:38;-3.40;99.90
5796;DHT22;2924;51.458;7.046;2022-12-18T06:03:08;-3.50;99.90
5796;DHT22;2924;51.458;7.046;2022-12-18T06:05:36;-3.50;99.90
5796;DHT22;2924;51.458;7.046;2022-12-18T06:08:02;-3.40;99.90
5796;DHT22;2924;51.458;7.046;2022-12-18T06:10:28;-3.50;99.90
5796;DHT22;2924;51.458;7.046;2022-12-18T06:12:54;-3.60;99.90
5796;DHT22;2924;51.458;7.046;2022-12-18T06:15:19;-3.70;99.90
5796;DHT22;2924;51.458;7.046;2022-12-18T06:17:45;-3.70;99.90
5796;DHT22;2924;51.458;7.046;2022-12-18T06:20:11;-3.70;99.90
5796;DHT22;2924;51.458;7.046;2022-12-18T06:22:36;-3.70;99.90
5796;DHT22;2924;51.458;7.046;2022-12-18T06:25:02;-3.60;99.90
5796;DHT22;2924;51.458;7.046;2022-12-18T06:27:28;-3.60;99.90
5796;DHT22;2924;51.458;7.046;2022-12-18T06:29:53;-3.60;99.90
5796;DHT22;2924;51.458;7.046;2022-12-18T06:32:19;-3.50;99.90
5796;DHT22;2924;51.458;7.046;2022-12-18T06:34:45;-3.40;99.90
5796;DHT22;2924;51.458;7.046;2022-12-18T06:37:11;-3.40;99.90
5796;DHT22;2924;51.458;7.046;2022-12-18T06:39:36;-3.40;99.90
5796;DHT22;2924;51.458;7.046;2022-12-18T06:42:03;-3.40;99.90
5796;DHT22;2924;51.458;7.046;2022-12-18T06:44:28;-3.40;99.90
5796;DHT22;2924;51.458;7.046;2022-12-18T06:46:54;-3.30;99.90
5796;DHT22;2924;51.458;7.046;2022-12-18T06:49:20;-3.30;99.90
5796;DHT22;2924;51.458;7.046;2022-12-18T06:51:45;-3.30;99.90
5796;DHT22;2924;51.458;7.046;2022-12-18T06:54:11;-3.30;99.90
5796;DHT22;2924;51.458;7.046;2022-12-18T06:56:37;-3.30;99.90
5796;DHT22;2924;51.458;7.046;2022-12-18T06:59:03;-3.30;99.90
5796;DHT22;2924;51.458;7.046;2022-12-18T07:01:29;-3.30;99.90
5796;DHT22;2924;51.458;7.046;2022-12-18T07:03:55;-3.30;99.90
5796;DHT22;2924;51.458;7.046;2022-12-18T07:06:24;-3.30;99.90
5796;DHT22;2924;51.458;7.046;2022-12-18T07:08:51;-3.20;99.90
5796;DHT22;2924;51.458;7.046;2022-12-18T07:11:18;-3.10;99.90
5796;DHT22;2924;51.458;7.046;2022-12-18T07:13:44;-3.00;99.90
5796;DHT22;2924;51.458;7.046;2022-12-18T07:16:28;-2.90;99.90
5796;DHT22;2924;51.458;7.046;2022-12-18T07:18:55;-2.80;99.90
5796;DHT22;2924;51.458;7.046;2022-12-18T07:21:22;-2.80;99.90
5796;DHT22;2924;51.458;7.046;2022-12-18T07:23:47;-2.70;99.90
5796;DHT22;2924;51.458;7.046;2022-12-18T07:26:15;-2.70;99.90
5796;DHT22;2924;51.458;7.046;2022-12-18T07:28:41;-2.60;99.90
5796;DHT22;2924;51.458;7.046;2022-12-18T07:31:19;-2.50;99.90
5796;DHT22;2924;51.458;7.046;2022-12-18T07:33:45;-2.40;99.90
5796;DHT22;2924;51.458;7.046;2022-12-18T07:36:11;-2.40;99.90
5796;DHT22;2924;51.458;7.046;2022-12-18T07:38:37;-2.30;99.90
5796;DHT22;2924;51.458;7.046;2022-12-18T07:41:05;-2.20;99.90
5796;DHT22;2924;51.458;7.046;2022-12-18T07:43:31;-2.10;99.90
5796;DHT22;2924;51.458;7.046;2022-12-18T07:45:57;-1.90;99.90
5796;DHT22;2924;51.458;7.046;2022-12-18T07:48:23;-1.90;99.90
5796;DHT22;2924;51.458;7.046;2022-12-18T07:50:48;-1.60;99.90
5796;DHT22;2924;51.458;7.046;2022-12-18T07:53:14;-1.50;99.90
5796;DHT22;2924;51.458;7.046;2022-12-18T07:55:40;-1.50;99.90
5796;DHT22;2924;51.458;7.046;2022-12-18T07:58:06;-1.30;99.90
5796;DHT22;2924;51.458;7.046;2022-12-18T08:00:32;-1.20;99.90
5796;DHT22;2924;51.458;7.046;2022-12-18T08:02:58;-1.20;99.90
5796;DHT22;2924;51.458;7.046;2022-12-18T08:05:23;-1.00;99.90
5796;DHT22;2924;51.458;7.046;2022-12-18T08:07:49;-0.80;99.90
5796;DHT22;2924;51.458;7.046;2022-12-18T08:10:15;-0.70;99.90
5796;DHT22;2924;51.458;7.046;2022-12-18T08:12:41;-0.60;99.90
5796;DHT22;2924;51.458;7.046;2022-12-18T08:15:07;-0.50;99.90
5796;DHT22;2924;51.458;7.046;2022-12-18T08:17:33;-0.50;99.90
5796;DHT22;2924;51.458;7.046;2022-12-18T08:19:59;-0.60;99.90
5796;DHT22;2924;51.458;7.046;2022-12-18T08:22:24;-0.60;99.90
5796;DHT22;2924;51.458;7.046;2022-12-18T08:24:50;-0.50;99.90
5796;DHT22;2924;51.458;7.046;2022-12-18T08:27:16;-0.30;99.90
5796;DHT22;2924;51.458;7.046;2022-12-18T08:29:41;-0.10;99.90
5796;DHT22;2924;51.458;7.046;2022-12-18T08:32:07;0.10;99.90
5796;DHT22;2924;51.458;7.046;2022-12-18T08:34:33;0.30;99.90
5796;DHT22;2924;51.458;7.046;2022-12-18T08:36:59;0.40;99.90
5796;DHT22;2924;51.458;7.046;2022-12-18T08:39:24;0.40;99.90
5796;DHT22;2924;51.458;7.046;2022-12-18T08:41:50;0.30;99.90
5796;DHT22;2924;51.458;7.046;2022-12-18T08:44:34;0.10;99.90
5796;DHT22;2924;51.458;7.046;2022-12-18T08:47:03;0.00;99.90
5796;DHT22;2924;51.458;7.046;2022-12-18T08:49:29;-0.10;99.90
5796;DHT22;2924;51.458;7.046;2022-12-18T08:51:55;-0.10;99.90
5796;DHT22;2924;51.458;7.046;2022-12-18T08:54:22;-0.10;99.90
5796;DHT22;2924;51.458;7.046;2022-12-18T08:56:48;0.00;99.90
5796;DHT22;2924;51.458;7.046;2022-12-18T08:59:15;0.10;99.90
5796;DHT22;2924;51.458;7.046;2022-12-18T09:01:41;0.30;99.90
5796;DHT22;2924;51.458;7.046;2022-12-18T09:04:08;0.70;99.90
5796;DHT22;2924;51.458;7.046;2022-12-18T09:06:34;0.80;99.90
5796;DHT22;2924;51.458;7.046;2022-12-18T09:09:00;1.00;99.90
5796;DHT22;2924;51.458;7.046;2022-12-18T09:11:27;1.10;99.90
5796;DHT22;2924;51.458;7.046;2022-12-18T09:13:53;1.20;99.90
5796;DHT22;2924;51.458;7.046;2022-12-18T09:16:20;1.20;99.90
5796;DHT22;2924;51.458;7.046;2022-12-18T09:18:46;1.20;99.90
5796;DHT22;2924;51.458;7.046;2022-12-18T09:21:15;1.20;99.90
5796;DHT22;2924;51.458;7.046;2022-12-18T09:23:41;1.20;99.90
5796;DHT22;2924;51.458;7.046;2022-12-18T09:26:07;1.20;99.90
5796;DHT22;2924;51.458;7.046;2022-12-18T09:28:33;1.30;99.90
5796;DHT22;2924;51.458;7.046;2022-12-18T09:30:58;1.40;99.90
5796;DHT22;2924;51.458;7.046;2022-12-18T09:33:28;1.50;99.90
5796;DHT22;2924;51.458;7.046;2022-12-18T09:35:54;1.70;99.60
5796;DHT22;2924;51.458;7.046;2022-12-18T09:38:19;1.90;99.00
5796;DHT22;2924;51.458;7.046;2022-12-18T09:40:49;2.10;98.70
5796;DHT22;2924;51.458;7.046;2022-12-18T09:43:33;2.30;98.30
5796;DHT22;2924;51.458;7.046;2022-12-18T09:46:08;2.40;97.60
5796;DHT22;2924;51.458;7.046;2022-12-18T09:48:40;2.30;97.40
5796;DHT22;2924;51.458;7.046;2022-12-18T09:51:20;2.30;97.50
5796;DHT22;2924;51.458;7.046;2022-12-18T09:54:01;2.30;97.10
5796;DHT22;2924;51.458;7.046;2022-12-18T09:56:30;2.30;97.10
5796;DHT22;2924;51.458;7.046;2022-12-18T09:59:02;2.30;97.20
5796;DHT22;2924;51.458;7.046;2022-12-18T10:01:29;2.30;96.50
5796;DHT22;2924;51.458;7.046;2022-12-18T10:03:55;2.20;96.80
5796;DHT22;2924;51.458;7.046;2022-12-18T10:17:54;2.30;96.70
5796;DHT22;2924;51.458;7.046;2022-12-18T10:23:33;2.30;96.80
5796;DHT22;2924;51.458;7.046;2022-12-18T10:26:04;2.40;96.80
5796;DHT22;2924;51.458;7.046;2022-12-18T10:28:32;2.40;96.30
5796;DHT22;2924;51.458;7.046;2022-12-18T10:30:58;2.40;96.10
5796;DHT22;2924;51.458;7.046;2022-12-18T10:33:27;2.40;96.00
5796;DHT22;2924;51.458;7.046;2022-12-18T10:35:54;2.40;95.90
5796;DHT22;2924;51.458;7.046;2022-12-18T10:38:29;2.50;96.20
5796;DHT22;2924;51.458;7.046;2022-12-18T10:41:07;2.60;95.90
5796;DHT22;2924;51.458;7.046;2022-12-18T10:44:11;2.70;95.60
5796;DHT22;2924;51.458;7.046;2022-12-18T10:46:37;2.80;95.50
5796;DHT22;2924;51.458;7.046;2022-12-18T10:49:04;2.80;95.30
5796;DHT22;2924;51.458;7.046;2022-12-18T10:51:31;2.90;95.40
5796;DHT22;2924;51.458;7.046;2022-12-18T10:56:29;2.90;95.20
5796;DHT22;2924;51.458;7.046;2022-12-18T10:59:06;2.90;95.70
5796;DHT22;2924;51.458;7.046;2022-12-18T11:01:55;2.90;94.90
5796;DHT22;2924;51.458;7.046;2022-12-18T11:04:23;3.00;95.40
5796;DHT22;2924;51.458;7.046;2022-12-18T11:07:08;3.00;95.30
5796;DHT22;2924;51.458;7.046;2022-12-18T11:09:39;2.90;95.10
5796;DHT22;2924;51.458;7.046;2022-12-18T11:12:19;2.90;95.20
5796;DHT22;2924;51.458;7.046;2022-12-18T11:14:52;3.00;95.10
5796;DHT22;2924;51.458;7.046;2022-12-18T11:17:28;2.90;95.50
5796;DHT22;2924;51.458;7.046;2022-12-18T11:20:00;3.00;95.20
5796;DHT22;2924;51.458;7.046;2022-12-18T11:22:31;3.10;95.00
5796;DHT22;2924;51.458;7.046;2022-12-18T11:25:03;3.00;95.40
5796;DHT22;2924;51.458;7.046;2022-12-18T11:27:31;3.20;95.10
5796;DHT22;2924;51.458;7.046;2022-12-18T11:30:31;3.20;94.90
5796;DHT22;2924;51.458;7.046;2022-12-18T11:33:10;3.20;94.30
5796;DHT22;2924;51.458;7.046;2022-12-18T11:35:51;3.20;94.40
5796;DHT22;2924;51.458;7.046;2022-12-18T11:38:24;3.20;94.90
5796;DHT22;2924;51.458;7.046;2022-12-18T11:43:55;3.40;94.90
5796;DHT22;2924;51.458;7.046;2022-12-18T11:46:33;3.50;94.60
5796;DHT22;2924;51.458;7.046;2022-12-18T11:49:03;3.60;94.30
5796;DHT22;2924;51.458;7.046;2022-12-18T11:51:39;3.60;94.50
5796;DHT22;2924;51.458;7.046;2022-12-18T11:54:13;3.70;94.30
5796;DHT22;2924;51.458;7.046;2022-12-18T11:56:46;3.70;94.10
5796;DHT22;2924;51.458;7.046;2022-12-18T11:59:29;3.60;93.80
5796;DHT22;2924;51.458;7.046;2022-12-18T12:07:50;3.70;94.30
5796;DHT22;2924;51.458;7.046;2022-12-18T12:13:18;3.80;93.60
5796;DHT22;2924;51.458;7.046;2022-12-18T12:26:49;4.10;92.90
5796;DHT22;2924;51.458;7.046;2022-12-18T12:32:22;4.10;92.60
5796;DHT22;2924;51.458;7.046;2022-12-18T12:40:17;4.00;93.00
5796;DHT22;2924;51.458;7.046;2022-12-18T12:42:49;4.00;93.10
5796;DHT22;2924;51.458;7.046;2022-12-18T12:45:48;4.00;93.10
5796;DHT22;2924;51.458;7.046;2022-12-18T12:51:17;4.10;92.70
5796;DHT22;2924;51.458;7.046;2022-12-18T12:53:45;4.10;92.70
5796;DHT22;2924;51.458;7.046;2022-12-18T12:56:15;4.10;92.70
5796;DHT22;2924;51.458;7.046;2022-12-18T13:01:34;4.00;92.10
5796;DHT22;2924;51.458;7.046;2022-12-18T13:04:15;4.00;92.20
5796;DHT22;2924;51.458;7.046;2022-12-18T13:09:13;3.80;92.70
5796;DHT22;2924;51.458;7.046;2022-12-18T13:11:44;3.70;92.90
5796;DHT22;2924;51.458;7.046;2022-12-18T13:14:37;3.70;93.00
5796;DHT22;2924;51.458;7.046;2022-12-18T13:19:51;3.50;93.40
5796;DHT22;2924;51.458;7.046;2022-12-18T13:22:42;3.60;93.50
5796;DHT22;2924;51.458;7.046;2022-12-18T13:25:38;3.40;93.50
5796;DHT22;2924;51.458;7.046;2022-12-18T13:35:52;3.20;94.50
5796;DHT22;2924;51.458;7.046;2022-12-18T13:38:23;3.00;94.60
5796;DHT22;2924;51.458;7.046;2022-12-18T13:48:33;2.80;96.00
5796;DHT22;2924;51.458;7.046;2022-12-18T13:51:07;2.70;96.10
5796;DHT22;2924;51.458;7.046;2022-12-18T13:53:57;2.60;96.60
5796;DHT22;2924;51.458;7.046;2022-12-18T13:56:29;2.60;96.80
5796;DHT22;2924;51.458;7.046;2022-12-18T14:01:57;2.40;97.20
5796;DHT22;2924;51.458;7.046;2022-12-18T14:04:29;2.40;97.30
5796;DHT22;2924;51.458;7.046;2022-12-18T14:07:03;2.40;97.50
5796;DHT22;2924;51.458;7.046;2022-12-18T14:09:34;2.20;97.90
5796;DHT22;2924;51.458;7.046;2022-12-18T14:12:01;2.20;98.10
5796;DHT22;2924;51.458;7.046;2022-12-18T14:14:49;2.20;98.30
5796;DHT22;2924;51.458;7.046;2022-12-18T14:17:16;2.20;98.30
5796;DHT22;2924;51.458;7.046;2022-12-18T14:19:44;2.10;98.70
5796;DHT22;2924;51.458;7.046;2022-12-18T14:22:19;2.20;98.30
5796;DHT22;2924;51.458;7.046;2022-12-18T14:24:47;2.10;98.10
5796;DHT22;2924;51.458;7.046;2022-12-18T14:27:22;2.10;98.00
5796;DHT22;2924;51.458;7.046;2022-12-18T14:29:48;2.10;98.30
5796;DHT22;2924;51.458;7.046;2022-12-18T14:32:16;2.10;98.30
5796;DHT22;2924;51.458;7.046;2022-12-18T14:34:52;2.00;98.40
5796;DHT22;2924;51.458;7.046;2022-12-18T14:37:23;2.00;99.10
5796;DHT22;2924;51.458;7.046;2022-12-18T14:39:59;2.00;99.60
5796;DHT22;2924;51.458;7.046;2022-12-18T14:42:26;2.00;99.30
5796;DHT22;2924;51.458;7.046;2022-12-18T14:47:58;1.90;99.60
5796;DHT22;2924;51.458;7.046;2022-12-18T14:50:23;1.90;99.90
5796;DHT22;2924;51.458;7.046;2022-12-18T14:52:50;1.80;99.90
5796;DHT22;2924;51.458;7.046;2022-12-18T14:55:20;1.80;99.90
5796;DHT22;2924;51.458;7.046;2022-12-18T14:57:50;1.70;99.90
5796;DHT22;2924;51.458;7.046;2022-12-18T15:00:19;1.70;99.90
5796;DHT22;2924;51.458;7.046;2022-12-18T15:02:48;1.60;99.90
5796;DHT22;2924;51.458;7.046;2022-12-18T15:05:20;1.60;99.90
5796;DHT22;2924;51.458;7.046;2022-12-18T15:07:51;1.60;99.90
5796;DHT22;2924;51.458;7.046;2022-12-18T15:10:21;1.60;99.90
5796;DHT22;2924;51.458;7.046;2022-12-18T15:20:41;1.60;99.90
5796;DHT22;2924;51.458;7.046;2022-12-18T15:23:35;1.60;99.90
5796;DHT22;2924;51.458;7.046;2022-12-18T15:26:07;1.60;99.90
5796;DHT22;2924;51.458;7.046;2022-12-18T15:28:38;1.50;99.90
5796;DHT22;2924;51.458;7.046;2022-12-18T15:33:34;1.50;99.90
5796;DHT22;2924;51.458;7.046;2022-12-18T15:36:08;1.50;99.90
5796;DHT22;2924;51.458;7.046;2022-12-18T15:38:34;1.50;99.90
5796;DHT22;2924;51.458;7.046;2022-12-18T15:41:00;1.50;99.90
5796;DHT22;2924;51.458;7.046;2022-12-18T15:43:27;1.50;99.90
5796;DHT22;2924;51.458;7.046;2022-12-18T15:46:23;1.50;99.90
5796;DHT22;2924;51.458;7.046;2022-12-18T15:48:51;1.50;99.90
5796;DHT22;2924;51.458;7.046;2022-12-18T15:51:23;1.40;99.90
5796;DHT22;2924;51.458;7.046;2022-12-18T15:53:52;1.40;99.90
5796;DHT22;2924;51.458;7.046;2022-12-18T15:56:18;1.40;99.90
5796;DHT22;2924;51.458;7.046;2022-12-18T15:59:09;1.40;99.90
5796;DHT22;2924;51.458;7.046;2022-12-18T16:01:35;1.40;99.90
5796;DHT22;2924;51.458;7.046;2022-12-18T16:04:01;1.30;99.90
5796;DHT22;2924;51.458;7.046;2022-12-18T16:06:26;1.30;99.90
5796;DHT22;2924;51.458;7.046;2022-12-18T16:08:52;1.30;99.90
5796;DHT22;2924;51.458;7.046;2022-12-18T16:11:27;1.30;99.90
5796;DHT22;2924;51.458;7.046;2022-12-18T16:14:23;1.30;99.90
5796;DHT22;2924;51.458;7.046;2022-12-18T16:16:54;1.30;99.90
5796;DHT22;2924;51.458;7.046;2022-12-18T16:19:20;1.30;99.90
5796;DHT22;2924;51.458;7.046;2022-12-18T16:21:51;1.30;99.90
5796;DHT22;2924;51.458;7.046;2022-12-18T16:24:19;1.30;99.90
5796;DHT22;2924;51.458;7.046;2022-12-18T16:26:47;1.40;99.90
5796;DHT22;2924;51.458;7.046;2022-12-18T16:29:14;1.40;99.90
5796;DHT22;2924;51.458;7.046;2022-12-18T16:31:39;1.30;99.90
5796;DHT22;2924;51.458;7.046;2022-12-18T16:34:21;1.40;99.90
5796;DHT22;2924;51.458;7.046;2022-12-18T16:36:50;1.40;99.90
5796;DHT22;2924;51.458;7.046;2022-12-18T16:39:17;1.40;99.90
5796;DHT22;2924;51.458;7.046;2022-12-18T16:41:42;1.50;99.90
5796;DHT22;2924;51.458;7.046;2022-12-18T16:44:09;1.40;99.90
5796;DHT22;2924;51.458;7.046;2022-12-18T16:46:36;1.40;99.90
5796;DHT22;2924;51.458;7.046;2022-12-18T16:49:02;1.30;99.90
5796;DHT22;2924;51.458;7.046;2022-12-18T16:51:28;1.40;99.90
5796;DHT22;2924;51.458;7.046;2022-12-18T16:53:55;1.30;99.90
5796;DHT22;2924;51.458;7.046;2022-12-18T16:56:20;1.30;99.90
5796;DHT22;2924;51.458;7.046;2022-12-18T16:58:53;1.30;99.90
5796;DHT22;2924;51.458;7.046;2022-12-18T17:01:20;1.30;99.90
5796;DHT22;2924;51.458;7.046;2022-12-18T17:03:54;1.30;99.90
5796;DHT22;2924;51.458;7.046;2022-12-18T17:06:21;1.20;99.90
5796;DHT22;2924;51.458;7.046;2022-12-18T17:08:47;1.20;99.90
5796;DHT22;2924;51.458;7.046;2022-12-18T17:11:13;1.20;99.90
5796;DHT22;2924;51.458;7.046;2022-12-18T17:13:39;1.20;99.90
5796;DHT22;2924;51.458;7.046;2022-12-18T17:16:06;1.20;99.90
5796;DHT22;2924;51.458;7.046;2022-12-18T17:18:33;1.20;99.90
5796;DHT22;2924;51.458;7.046;2022-12-18T17:21:19;1.10;99.90
5796;DHT22;2924;51.458;7.046;2022-12-18T17:23:54;1.10;99.90
5796;DHT22;2924;51.458;7.046;2022-12-18T17:26:36;1.10;99.90
5796;DHT22;2924;51.458;7.046;2022-12-18T17:29:02;1.10;99.90
5796;DHT22;2924;51.458;7.046;2022-12-18T17:31:29;1.00;99.90
5796;DHT22;2924;51.458;7.046;2022-12-18T17:33:55;1.00;99.90
5796;DHT22;2924;51.458;7.046;2022-12-18T17:36:22;1.00;99.90
5796;DHT22;2924;51.458;7.046;2022-12-18T17:38:53;1.00;99.90
5796;DHT22;2924;51.458;7.046;2022-12-18T17:41:19;1.00;99.90
5796;DHT22;2924;51.458;7.046;2022-12-18T17:46:22;1.00;99.90
5796;DHT22;2924;51.458;7.046;2022-12-18T17:48:49;0.90;99.90
5796;DHT22;2924;51.458;7.046;2022-12-18T17:51:15;0.90;99.90
5796;DHT22;2924;51.458;7.046;2022-12-18T17:53:41;0.90;99.90
5796;DHT22;2924;51.458;7.046;2022-12-18T17:56:12;0.90;99.90
5796;DHT22;2924;51.458;7.046;2022-12-18T17:58:38;0.90;99.90
5796;DHT22;2924;51.458;7.046;2022-12-18T18:01:04;0.90;99.90
5796;DHT22;2924;51.458;7.046;2022-12-18T18:03:31;0.90;99.90
5796;DHT22;2924;51.458;7.046;2022-12-18T18:05:58;0.90;99.90
5796;DHT22;2924;51.458;7.046;2022-12-18T18:08:25;0.90;99.90
5796;DHT22;2924;51.458;7.046;2022-12-18T18:10:51;0.80;99.90
5796;DHT22;2924;51.458;7.046;2022-12-18T18:13:20;0.80;99.90